createdAt,value
2023-03-30T00:02:10.933Z,8.80
2023-03-30T00:04:43.041Z,8.70
2023-03-30T00:07:12.049Z,8.77
2023-03-30T00:09:43.514Z,9.00
2023-03-30T00:12:13.495Z,9.53
2023-03-30T00:14:42.675Z,9.77
2023-03-30T00:17:11.231Z,10.03
2023-03-30T00:19:40.578Z,8.93
2023-03-30T00:22:11.517Z,10.03
2023-03-30T00:24:39.498Z,9.13
2023-03-30T00:27:07.819Z,12.63
2023-03-30T00:29:35.943Z,10.20
2023-03-30T00:32:03.949Z,9.57
2023-03-30T00:34:31.921Z,8.37
2023-03-30T00:37:01.286Z,8.73
2023-03-30T00:39:29.346Z,8.37
2023-03-30T00:41:57.329Z,8.93
2023-03-30T00:45:06.431Z,9.00
2023-03-30T00:47:35.635Z,8.13
2023-03-30T00:50:04.582Z,9.23
2023-03-30T00:52:37.386Z,9.03
2023-03-30T00:55:07.978Z,9.10
2023-03-30T00:57:38.610Z,10.23
2023-03-30T01:00:11.697Z,8.63
2023-03-30T01:02:45.957Z,10.03
2023-03-30T01:05:14.429Z,9.47
2023-03-30T01:07:46.383Z,8.87
2023-03-30T01:10:14.576Z,9.13
2023-03-30T01:12:42.530Z,9.37
2023-03-30T01:15:11.429Z,8.60
2023-03-30T01:17:53.105Z,9.00
2023-03-30T01:21:03.305Z,9.27
2023-03-30T01:24:05.600Z,9.37
2023-03-30T01:26:47.229Z,8.73
2023-03-30T01:29:40.599Z,9.00
2023-03-30T01:32:53.176Z,10.70
2023-03-30T01:35:47.579Z,8.63
2023-03-30T01:38:46.442Z,9.77
2023-03-30T01:41:22.653Z,11.07
2023-03-30T01:43:56.759Z,11.47
2023-03-30T01:46:31.098Z,11.90
2023-03-30T01:49:07.461Z,10.57
2023-03-30T01:51:40.868Z,11.10
2023-03-30T01:54:11.965Z,11.93
2023-03-30T01:56:48.389Z,11.40
2023-03-30T01:59:21.747Z,11.23
2023-03-30T02:01:54.210Z,11.90
2023-03-30T02:04:24.675Z,11.17
2023-03-30T02:06:56.678Z,12.17
2023-03-30T02:09:27.472Z,12.13
2023-03-30T02:11:57.602Z,11.37
2023-03-30T02:14:28.260Z,10.67
2023-03-30T02:17:01.808Z,11.40
2023-03-30T02:19:30.208Z,11.10
2023-03-30T02:21:59.133Z,11.10
2023-03-30T02:24:31.678Z,11.13
2023-03-30T02:27:02.527Z,10.73
2023-03-30T02:29:30.632Z,10.30
2023-03-30T02:32:00.700Z,9.87
2023-03-30T02:34:47.762Z,10.43
2023-03-30T02:37:30.208Z,11.40
2023-03-30T02:40:13.427Z,10.27
2023-03-30T02:43:00.112Z,9.73
2023-03-30T02:45:38.507Z,11.70
2023-03-30T02:48:17.748Z,9.73
2023-03-30T02:50:52.465Z,10.17
2023-03-30T02:53:28.776Z,10.80
2023-03-30T02:56:04.257Z,10.60
2023-03-30T02:58:41.723Z,11.43
2023-03-30T03:01:15.784Z,10.20
2023-03-30T03:03:47.041Z,10.13
2023-03-30T03:06:16.327Z,9.27
2023-03-30T03:08:47.830Z,9.17
2023-03-30T03:11:15.825Z,10.10
2023-03-30T03:13:45.160Z,10.20
2023-03-30T03:16:13.380Z,11.07
2023-03-30T03:18:42.378Z,10.17
2023-03-30T03:21:12.038Z,10.53
2023-03-30T03:23:40.046Z,10.33
2023-03-30T03:26:08.694Z,11.77
2023-03-30T03:28:36.889Z,10.63
2023-03-30T03:31:07.044Z,10.00
2023-03-30T03:33:35.386Z,9.77
2023-03-30T03:36:03.388Z,11.27
2023-03-30T03:38:31.365Z,10.83
2023-03-30T03:41:03.106Z,11.43
2023-03-30T03:43:31.522Z,14.87
2023-03-30T03:45:59.795Z,16.47
2023-03-30T03:48:29.230Z,14.23
2023-03-30T03:50:58.808Z,13.53
2023-03-30T03:53:28.587Z,13.60
2023-03-30T03:55:56.975Z,13.53
2023-03-30T03:58:26.430Z,13.17
2023-03-30T04:01:00.012Z,14.63
2023-03-30T04:03:29.847Z,14.00
2023-03-30T04:06:01.312Z,13.20
2023-03-30T04:08:29.932Z,12.83
2023-03-30T04:11:05.071Z,11.43
2023-03-30T04:13:33.202Z,11.43
2023-03-30T04:16:01.463Z,11.70
2023-03-30T04:18:33.591Z,12.00
2023-03-30T04:21:05.273Z,10.77
2023-03-30T04:23:34.685Z,9.63
2023-03-30T04:26:02.805Z,9.83
2023-03-30T04:28:31.854Z,9.53
2023-03-30T04:31:00.886Z,10.23
2023-03-30T04:33:30.684Z,9.47
2023-03-30T04:35:58.729Z,9.60
2023-03-30T04:38:26.640Z,10.07
2023-03-30T04:40:55.133Z,10.30
2023-03-30T04:43:24.241Z,10.80
2023-03-30T04:45:53.363Z,9.83
2023-03-30T04:48:22.899Z,10.30
2023-03-30T04:50:54.120Z,10.70
2023-03-30T04:53:23.128Z,10.43
2023-03-30T04:55:52.284Z,9.53
2023-03-30T04:58:20.446Z,9.93
2023-03-30T05:00:48.446Z,9.83
2023-03-30T05:03:16.564Z,10.47
2023-03-30T05:05:44.710Z,9.40
2023-03-30T05:08:14.072Z,9.27
2023-03-30T05:10:41.978Z,10.03
2023-03-30T05:13:09.943Z,10.30
2023-03-30T05:15:37.932Z,10.27
2023-03-30T05:18:06.281Z,11.30
2023-03-30T05:20:34.763Z,11.90
2023-03-30T05:23:02.862Z,11.00
2023-03-30T05:25:32.172Z,10.77
2023-03-30T05:28:00.148Z,11.17
2023-03-30T05:30:28.380Z,12.67
2023-03-30T05:32:56.529Z,12.60
2023-03-30T05:35:24.516Z,12.60
2023-03-30T05:37:54.317Z,14.40
2023-03-30T05:40:22.311Z,17.27
2023-03-30T05:42:51.590Z,16.70
2023-03-30T05:45:19.556Z,16.83
2023-03-30T05:47:47.526Z,15.50
2023-03-30T05:50:15.982Z,15.30
2023-03-30T05:52:43.917Z,13.97
2023-03-30T05:55:12.088Z,12.73
2023-03-30T05:57:40.743Z,13.67
2023-03-30T06:00:12.782Z,12.80
2023-03-30T06:02:41.092Z,13.63
2023-03-30T06:05:09.833Z,12.90
2023-03-30T06:07:38.530Z,14.00
2023-03-30T06:10:08.045Z,13.63
2023-03-30T06:12:36.206Z,12.63
2023-03-30T06:15:05.086Z,13.03
2023-03-30T06:17:34.441Z,13.87
2023-03-30T06:20:02.654Z,13.60
2023-03-30T06:22:31.952Z,13.00
2023-03-30T06:25:00.012Z,14.47
2023-03-30T06:27:28.006Z,13.70
2023-03-30T06:29:56.163Z,13.40
2023-03-30T06:32:24.318Z,15.57
2023-03-30T06:34:54.143Z,13.53
2023-03-30T06:37:22.141Z,14.27
2023-03-30T06:39:50.983Z,14.73
2023-03-30T06:42:18.960Z,12.30
2023-03-30T06:44:49.352Z,13.50
2023-03-30T06:47:18.963Z,15.77
2023-03-30T06:49:46.930Z,15.87
2023-03-30T06:52:16.682Z,14.73
2023-03-30T06:54:44.607Z,13.63
2023-03-30T06:57:12.604Z,13.30
2023-03-30T06:59:40.801Z,13.50
2023-03-30T07:02:13.087Z,14.60
2023-03-30T07:04:41.112Z,13.60
2023-03-30T07:07:09.129Z,14.20
2023-03-30T07:09:38.446Z,13.17
2023-03-30T07:12:06.808Z,12.43
2023-03-30T07:14:34.797Z,13.97
2023-03-30T07:17:02.862Z,13.53
2023-03-30T07:19:30.952Z,13.33
2023-03-30T07:21:58.894Z,12.90
2023-03-30T07:24:26.875Z,12.47
2023-03-30T07:26:56.217Z,18.40
2023-03-30T07:29:24.196Z,13.13
2023-03-30T07:31:52.200Z,13.90
2023-03-30T07:34:20.125Z,12.47
2023-03-30T07:36:49.013Z,12.77
2023-03-30T07:39:18.018Z,12.57
2023-03-30T07:41:46.113Z,11.70
2023-03-30T07:44:15.519Z,15.27
2023-03-30T07:46:43.534Z,16.37
2023-03-30T07:49:11.537Z,15.57
2023-03-30T07:51:39.834Z,15.63
2023-03-30T07:54:10.291Z,13.30
2023-03-30T07:56:39.658Z,16.00
2023-03-30T07:59:08.159Z,15.43
2023-03-30T08:01:38.130Z,15.17
2023-03-30T08:04:06.455Z,16.03
2023-03-30T08:06:34.543Z,65.47
2023-03-30T08:09:02.705Z,35.27
2023-03-30T08:11:31.541Z,16.67
2023-03-30T08:13:59.558Z,14.17
2023-03-30T08:16:27.626Z,13.37
2023-03-30T08:18:59.512Z,13.47
2023-03-30T08:21:27.763Z,13.80
2023-03-30T08:23:58.066Z,17.23
2023-03-30T08:26:26.812Z,13.43
2023-03-30T08:28:55.360Z,14.57
2023-03-30T08:31:23.570Z,13.97
2023-03-30T08:33:51.685Z,13.30
2023-03-30T08:36:21.373Z,13.90
2023-03-30T08:38:49.460Z,12.63
2023-03-30T08:41:54.839Z,14.33
2023-03-30T08:44:32.224Z,12.17
2023-03-30T08:47:01.843Z,12.37
2023-03-30T08:49:34.604Z,12.77
2023-03-30T08:52:06.309Z,12.27
2023-03-30T08:54:35.134Z,13.37
2023-03-30T08:57:12.735Z,12.97
2023-03-30T08:59:47.801Z,14.70
2023-03-30T09:02:20.185Z,11.73
2023-03-30T09:04:58.342Z,12.47
2023-03-30T09:07:30.086Z,13.20
2023-03-30T09:09:58.999Z,14.47
2023-03-30T09:12:37.845Z,11.57
2023-03-30T09:15:08.949Z,13.57
2023-03-30T09:17:41.607Z,13.33
2023-03-30T09:20:16.210Z,12.87
2023-03-30T09:22:46.664Z,13.77
2023-03-30T09:25:18.324Z,13.60
2023-03-30T09:27:53.240Z,14.57
2023-03-30T09:30:23.640Z,14.80
2023-03-30T09:33:00.519Z,13.13
2023-03-30T09:35:38.115Z,13.97
2023-03-30T09:38:10.237Z,14.40
2023-03-30T09:40:50.801Z,14.13
2023-03-30T09:43:28.727Z,15.40
2023-03-30T09:45:58.898Z,13.50
2023-03-30T09:48:26.826Z,12.73
2023-03-30T09:50:54.806Z,12.43
2023-03-30T09:53:26.897Z,13.40
2023-03-30T09:56:02.831Z,13.27
2023-03-30T09:58:32.938Z,13.13
2023-03-30T10:01:08.420Z,13.93
2023-03-30T10:03:37.174Z,15.97
2023-03-30T10:06:08.400Z,12.53
2023-03-30T10:08:43.719Z,12.73
2023-03-30T10:11:12.190Z,11.90
2023-03-30T10:13:43.603Z,12.10
2023-03-30T10:16:21.633Z,11.67
2023-03-30T10:18:54.908Z,11.67
2023-03-30T10:21:27.119Z,12.33
2023-03-30T10:24:08.203Z,11.17
2023-03-30T10:26:38.665Z,12.93
2023-03-30T10:29:10.917Z,12.10
2023-03-30T10:31:41.072Z,11.73
2023-03-30T10:34:18.014Z,15.00
2023-03-30T10:36:50.170Z,12.13
2023-03-30T10:39:25.344Z,11.97
2023-03-30T10:41:57.300Z,10.33
2023-03-30T10:44:31.289Z,9.93
2023-03-30T10:47:17.976Z,10.53
2023-03-30T10:49:56.445Z,10.63
2023-03-30T10:52:34.350Z,10.50
2023-03-30T10:55:10.566Z,13.33
2023-03-30T10:57:49.818Z,11.87
2023-03-30T11:00:32.778Z,10.20
2023-03-30T11:03:09.426Z,11.20
2023-03-30T11:05:41.297Z,10.27
2023-03-30T11:08:13.762Z,11.77
2023-03-30T11:10:46.785Z,12.17
2023-03-30T11:13:19.191Z,11.20
2023-03-30T11:15:52.137Z,11.60
2023-03-30T11:18:24.468Z,9.57
2023-03-30T11:21:01.412Z,9.63
2023-03-30T11:23:40.778Z,9.47
2023-03-30T11:26:12.778Z,9.47
2023-03-30T11:28:54.869Z,10.20
2023-03-30T11:31:38.389Z,10.37
2023-03-30T11:34:13.422Z,10.83
2023-03-30T11:36:49.598Z,10.63
2023-03-30T11:39:31.640Z,8.50
2023-03-30T11:42:12.561Z,9.07
2023-03-30T11:44:40.731Z,9.40
2023-03-30T11:47:34.148Z,8.83
2023-03-30T11:50:14.948Z,9.40
2023-03-30T11:52:54.177Z,9.87
2023-03-30T11:55:36.070Z,8.80
2023-03-30T11:58:16.751Z,9.23
2023-03-30T12:00:53.410Z,8.03
2023-03-30T12:03:36.478Z,8.73
2023-03-30T12:06:21.797Z,9.67
2023-03-30T12:09:00.440Z,11.33
2023-03-30T12:11:33.868Z,11.63
2023-03-30T12:14:03.789Z,12.17
2023-03-30T12:16:40.405Z,11.10
2023-03-30T12:19:14.592Z,10.17
2023-03-30T12:21:52.401Z,11.00
2023-03-30T12:24:26.898Z,9.40
2023-03-30T12:27:05.421Z,10.20
2023-03-30T12:30:11.824Z,10.00
2023-03-30T12:32:39.894Z,8.70
2023-03-30T12:35:41.084Z,10.47
2023-03-30T12:38:09.199Z,9.20
2023-03-30T12:40:38.412Z,8.97
2023-03-30T12:43:15.829Z,10.67
2023-03-30T12:46:02.509Z,10.20
2023-03-30T12:48:41.833Z,10.87
2023-03-30T12:51:21.978Z,11.47
2023-03-30T12:54:26.797Z,11.83
2023-03-30T12:57:03.877Z,12.87
2023-03-30T13:00:08.965Z,11.83
2023-03-30T13:03:06.143Z,11.70
2023-03-30T13:05:36.989Z,11.50
2023-03-30T13:08:07.505Z,10.33
2023-03-30T13:10:40.213Z,12.27
2023-03-30T13:13:19.070Z,11.20
2023-03-30T13:15:53.069Z,12.03
2023-03-30T13:18:42.107Z,10.53
2023-03-30T13:21:22.371Z,11.47
2023-03-30T13:24:06.688Z,11.63
2023-03-30T13:26:43.944Z,11.73
2023-03-30T13:29:15.199Z,11.47
2023-03-30T13:32:02.135Z,11.80
2023-03-30T13:34:58.903Z,11.27
2023-03-30T13:37:46.736Z,20.70
2023-03-30T13:40:35.150Z,11.83
2023-03-30T13:43:13.427Z,9.50
2023-03-30T13:45:49.216Z,10.87
2023-03-30T13:48:31.524Z,11.43
2023-03-30T13:51:04.370Z,11.23
2023-03-30T13:53:38.854Z,10.87
2023-03-30T13:56:09.254Z,11.97
2023-03-30T13:58:38.276Z,13.67
2023-03-30T14:01:10.011Z,13.67
2023-03-30T14:03:41.794Z,12.50
2023-03-30T14:06:18.389Z,11.07
2023-03-30T14:08:48.872Z,11.37
2023-03-30T14:11:19.864Z,13.50
2023-03-30T14:13:52.179Z,10.80
2023-03-30T14:16:23.603Z,10.37
2023-03-30T14:18:52.208Z,10.63
2023-03-30T14:21:24.141Z,10.73
2023-03-30T14:23:54.700Z,10.63
2023-03-30T14:26:26.541Z,11.87
2023-03-30T14:28:58.823Z,12.13
2023-03-30T14:31:27.887Z,12.17
2023-03-30T14:33:56.760Z,12.90
2023-03-30T14:36:26.464Z,13.17
2023-03-30T14:38:57.584Z,14.20
2023-03-30T14:41:27.694Z,13.43
2023-03-30T14:43:58.581Z,14.37
2023-03-30T14:46:29.808Z,13.30
2023-03-30T14:48:58.677Z,13.83
2023-03-30T14:51:35.171Z,13.33
2023-03-30T14:54:07.009Z,14.37
2023-03-30T14:56:35.376Z,15.17
2023-03-30T14:59:04.541Z,14.33
2023-03-30T15:01:34.505Z,11.63
2023-03-30T15:04:08.429Z,12.30
2023-03-30T15:06:39.083Z,12.77
2023-03-30T15:09:15.849Z,14.63
2023-03-30T15:11:45.840Z,12.63
2023-03-30T15:14:19.919Z,12.87
2023-03-30T15:16:53.580Z,13.23
2023-03-30T15:19:29.014Z,15.10
2023-03-30T15:22:03.319Z,16.33
2023-03-30T15:24:35.370Z,13.50
2023-03-30T15:27:06.736Z,12.43
2023-03-30T15:29:35.157Z,12.87
2023-03-30T15:32:09.210Z,12.40
2023-03-30T15:34:37.850Z,11.87
2023-03-30T15:37:22.916Z,14.03
2023-03-30T15:39:51.897Z,12.10
2023-03-30T15:42:29.244Z,13.17
2023-03-30T15:45:05.124Z,13.60
2023-03-30T15:47:33.228Z,14.13
2023-03-30T15:50:01.826Z,13.90
2023-03-30T15:52:35.415Z,16.80
2023-03-30T15:55:07.942Z,17.63
2023-03-30T15:57:37.550Z,22.00
2023-03-30T16:00:12.276Z,21.37
2023-03-30T16:02:42.240Z,17.33
2023-03-30T16:05:19.207Z,19.73
2023-03-30T16:07:48.633Z,21.07
2023-03-30T16:10:19.543Z,20.50
2023-03-30T16:12:48.654Z,20.60
2023-03-30T16:15:18.811Z,21.57
2023-03-30T16:17:47.173Z,17.57
2023-03-30T16:20:18.190Z,16.77
2023-03-30T16:22:47.437Z,16.57
2023-03-30T16:25:18.430Z,21.40
2023-03-30T16:27:47.184Z,20.57
2023-03-30T16:30:20.200Z,19.03
2023-03-30T16:32:49.087Z,19.97
2023-03-30T16:35:17.359Z,18.13
2023-03-30T16:37:45.627Z,17.87
2023-03-30T16:40:23.228Z,19.90
2023-03-30T16:42:51.199Z,24.80
2023-03-30T16:45:19.337Z,26.73
2023-03-30T16:47:47.569Z,23.37
2023-03-30T16:50:21.372Z,23.03
2023-03-30T16:52:49.628Z,21.17
2023-03-30T16:55:19.899Z,34.63
2023-03-30T16:57:48.717Z,33.47
2023-03-30T17:00:21.890Z,32.73
2023-03-30T17:02:49.996Z,47.17
2023-03-30T17:05:18.483Z,48.80
2023-03-30T17:07:47.031Z,45.53
2023-03-30T17:10:20.752Z,29.73
2023-03-30T17:12:49.730Z,28.43
2023-03-30T17:15:18.147Z,28.37
2023-03-30T17:17:46.558Z,27.97
2023-03-30T17:20:25.067Z,27.63
2023-03-30T17:22:53.318Z,26.63
2023-03-30T17:25:27.116Z,22.40
2023-03-30T17:27:56.141Z,21.33
2023-03-30T17:30:27.135Z,19.23
2023-03-30T17:32:57.221Z,19.07
2023-03-30T17:35:26.841Z,20.07
2023-03-30T17:37:56.493Z,19.83
2023-03-30T17:40:28.214Z,23.83
2023-03-30T17:42:56.723Z,24.50
2023-03-30T17:45:26.815Z,23.57
2023-03-30T17:47:55.149Z,26.77
2023-03-30T17:50:28.240Z,25.80
2023-03-30T17:52:57.240Z,25.30
2023-03-30T17:55:28.083Z,27.70
2023-03-30T17:57:56.490Z,27.07
2023-03-30T18:00:26.606Z,49.20
2023-03-30T18:02:55.811Z,58.23
2023-03-30T18:05:25.576Z,54.97
2023-03-30T18:07:53.739Z,44.10
2023-03-30T18:10:24.416Z,48.63
2023-03-30T18:12:54.629Z,65.77
2023-03-30T18:15:25.980Z,51.20
2023-03-30T18:17:54.128Z,46.93
2023-03-30T18:20:25.445Z,39.80
2023-03-30T18:22:53.664Z,37.77
2023-03-30T18:25:31.320Z,32.67
2023-03-30T18:28:02.186Z,31.83
2023-03-30T18:30:32.636Z,30.23
2023-03-30T18:33:01.304Z,28.60
2023-03-30T18:35:31.114Z,28.50
2023-03-30T18:37:59.662Z,27.43
2023-03-30T18:40:32.098Z,31.33
2023-03-30T18:43:02.019Z,50.43
2023-03-30T18:45:32.113Z,113.43
2023-03-30T18:48:01.168Z,311.30
2023-03-30T18:50:32.957Z,60.00
2023-03-30T18:53:02.381Z,100.00
2023-03-30T18:55:31.116Z,51.87
2023-03-30T18:57:59.372Z,49.17
2023-03-30T19:00:30.501Z,47.33
2023-03-30T19:02:59.319Z,37.60
2023-03-30T19:05:29.099Z,23.33
2023-03-30T19:07:59.237Z,18.83
2023-03-30T19:10:29.756Z,14.67
2023-03-30T19:12:58.371Z,11.23
2023-03-30T19:15:30.917Z,11.27
2023-03-30T19:17:59.031Z,8.70
2023-03-30T19:20:28.634Z,7.70
2023-03-30T19:22:56.771Z,6.77
2023-03-30T19:25:26.880Z,5.50
2023-03-30T19:28:03.058Z,4.10
2023-03-30T19:30:36.787Z,3.03
2023-03-30T19:33:08.629Z,3.17
2023-03-30T19:35:36.907Z,3.07
2023-03-30T19:38:05.318Z,3.03
2023-03-30T19:40:34.299Z,3.00
2023-03-30T19:43:02.276Z,3.17
2023-03-30T19:45:31.234Z,2.60
2023-03-30T19:48:00.758Z,3.80
2023-03-30T19:50:30.408Z,3.17
2023-03-30T19:52:59.474Z,3.07
2023-03-30T19:55:27.877Z,2.67
2023-03-30T19:57:55.817Z,3.30
2023-03-30T20:00:24.358Z,3.37
2023-03-30T20:02:54.908Z,3.60
2023-03-30T20:05:25.203Z,3.23
2023-03-30T20:07:53.496Z,3.33
2023-03-30T20:10:23.199Z,3.43
2023-03-30T20:12:52.400Z,3.20
2023-03-30T20:15:22.008Z,3.60
2023-03-30T20:17:50.039Z,3.40
2023-03-30T20:20:25.138Z,4.17
2023-03-30T20:22:56.531Z,4.77
2023-03-30T20:25:25.452Z,4.93
2023-03-30T20:27:54.469Z,4.70
2023-03-30T20:30:22.636Z,5.40
2023-03-30T20:33:06.131Z,5.50
2023-03-30T20:35:36.453Z,5.73
2023-03-30T20:38:06.085Z,5.47
2023-03-30T20:40:35.730Z,7.10
2023-03-30T20:43:03.809Z,6.43
2023-03-30T20:45:32.568Z,7.30
2023-03-30T20:48:16.197Z,8.03
2023-03-30T20:50:44.296Z,7.17
2023-03-30T20:53:13.758Z,7.80
2023-03-30T20:55:43.471Z,7.20
2023-03-30T20:58:12.086Z,7.10
2023-03-30T21:00:40.254Z,7.37
2023-03-30T21:03:08.964Z,6.93
2023-03-30T21:05:37.058Z,6.20
2023-03-30T21:08:07.807Z,6.33
2023-03-30T21:10:37.205Z,6.63
2023-03-30T21:13:05.327Z,5.50
2023-03-30T21:15:33.320Z,5.37
2023-03-30T21:18:01.530Z,5.10
2023-03-30T21:20:30.967Z,4.80
2023-03-30T21:22:59.079Z,4.60
2023-03-30T21:25:27.050Z,4.50
2023-03-30T21:27:56.392Z,4.77
2023-03-30T21:30:24.317Z,5.80
2023-03-30T21:32:52.242Z,5.27
2023-03-30T21:35:20.258Z,5.80
2023-03-30T21:37:48.179Z,5.50
2023-03-30T21:40:16.216Z,3.70
2023-03-30T21:42:44.250Z,4.30
2023-03-30T21:45:14.236Z,3.00
2023-03-30T21:47:42.241Z,3.03
2023-03-30T21:50:11.330Z,3.00
2023-03-30T21:52:39.320Z,3.00
2023-03-30T21:55:07.799Z,3.67
2023-03-30T21:57:35.919Z,3.27
2023-03-30T22:00:06.007Z,3.60
2023-03-30T22:02:35.627Z,3.60
2023-03-30T22:05:03.667Z,3.77
2023-03-30T22:07:31.825Z,3.33
2023-03-30T22:10:01.370Z,3.77
2023-03-30T22:12:31.410Z,3.13
2023-03-30T22:14:59.650Z,3.33
2023-03-30T22:17:35.533Z,4.33
2023-03-30T22:20:07.473Z,3.57
2023-03-30T22:22:35.641Z,4.90
2023-03-30T22:25:03.709Z,5.03
2023-03-30T22:27:32.718Z,5.43
2023-03-30T22:30:01.138Z,4.90
2023-03-30T22:32:29.313Z,5.23
2023-03-30T22:34:57.262Z,5.20
2023-03-30T22:37:26.842Z,5.80
2023-03-30T22:39:54.805Z,6.40
2023-03-30T22:42:22.713Z,5.30
2023-03-30T22:44:51.660Z,5.77
2023-03-30T22:47:19.583Z,5.67
2023-03-30T22:49:47.533Z,5.10
2023-03-30T22:52:15.554Z,5.97
2023-03-30T22:54:44.809Z,6.10
2023-03-30T22:57:12.867Z,5.40
2023-03-30T22:59:40.808Z,6.07
2023-03-30T23:02:08.780Z,6.60
2023-03-30T23:04:36.736Z,6.33
2023-03-30T23:07:04.812Z,6.53
2023-03-30T23:09:33.494Z,6.80
2023-03-30T23:12:03.302Z,5.77
2023-03-30T23:14:31.654Z,6.10
2023-03-30T23:16:59.688Z,6.63
2023-03-30T23:19:29.280Z,6.53
2023-03-30T23:21:57.575Z,6.63
2023-03-30T23:24:25.681Z,6.43
2023-03-30T23:26:53.674Z,6.17
2023-03-30T23:29:22.959Z,6.20
2023-03-30T23:31:52.380Z,7.03
2023-03-30T23:34:22.668Z,5.80
2023-03-30T23:36:50.988Z,6.47
2023-03-30T23:39:18.959Z,6.10
2023-03-30T23:41:46.904Z,7.03
2023-03-30T23:44:14.955Z,5.43
2023-03-30T23:46:44.444Z,5.93
2023-03-30T23:49:12.459Z,5.30
2023-03-30T23:51:40.627Z,6.60
2023-03-30T23:54:08.667Z,5.70
2023-03-30T23:56:38.540Z,5.97
2023-03-30T23:59:06.567Z,5.63
